Time;durP1;ratioP1;P1;durP2;ratioP2;P2;SDS_P1;SDS_P2;PMS_P1;PMS_P2;Temp;Humidity;BMP_temperature;BMP_pressure;BME280_temperature;BME280_humidity;BME280_pressure;Samples;Min_cycle;Max_cycle;Signal;HPM_P1;HPM_P2
2021/06/10 00:00:42;;;;;;;6.60;6.10;;;17.20;96.90;;;;;;5103717;28;20419;-77
2021/06/10 00:03:09;;;;;;;5.23;4.83;;;17.20;97.10;;;;;;5124439;27;20487;-78
2021/06/10 00:05:36;;;;;;;5.43;5.00;;;17.20;96.90;;;;;;5122440;28;20496;-79
2021/06/10 00:08:04;;;;;;;5.53;4.93;;;17.10;97.20;;;;;;5103921;28;20404;-78
2021/06/10 00:10:31;;;;;;;4.93;4.40;;;17.20;97.40;;;;;;5122211;28;20453;-79
2021/06/10 00:12:59;;;;;;;6.90;6.23;;;17.10;97.10;;;;;;5118054;28;20430;-78
2021/06/10 00:15:30;;;;;;;5.40;4.90;;;17.10;97.10;;;;;;5087201;28;20604;-77
2021/06/10 00:17:58;;;;;;;9.33;8.30;;;17.00;97.40;;;;;;5116111;28;20581;-77
2021/06/10 00:20:27;;;;;;;6.20;5.63;;;16.90;97.80;;;;;;5104241;28;20486;-78
2021/06/10 00:22:55;;;;;;;5.80;4.93;;;16.90;98.10;;;;;;5118548;28;20604;-78
2021/06/10 00:25:28;;;;;;;6.53;5.57;;;16.90;98.10;;;;;;5112819;28;20422;-78
2021/06/10 00:27:56;;;;;;;10.50;5.63;;;16.80;98.40;;;;;;5090563;28;20437;-78
2021/06/10 00:30:23;;;;;;;6.13;5.60;;;16.70;98.40;;;;;;5112114;28;20405;-76
2021/06/10 00:32:51;;;;;;;5.50;5.00;;;16.70;98.70;;;;;;5119170;28;20414;-77
2021/06/10 00:35:20;;;;;;;7.33;6.03;;;16.70;98.90;;;;;;5122508;28;20432;-77
2021/06/10 00:37:49;;;;;;;5.70;5.23;;;16.50;99.10;;;;;;5110276;28;20479;-79
2021/06/10 00:40:17;;;;;;;20.73;5.77;;;16.50;99.20;;;;;;5116924;28;20445;-77
2021/06/10 00:42:44;;;;;;;5.82;5.22;;;16.50;99.50;;;;;;5115845;28;20479;-79
2021/06/10 00:45:16;;;;;;;7.20;6.07;;;16.50;99.40;;;;;;5122010;28;20502;-80
2021/06/10 00:47:44;;;;;;;5.83;5.33;;;16.40;99.70;;;;;;5122304;28;20200;-77
2021/06/10 00:50:12;;;;;;;5.67;5.17;;;16.40;99.80;;;;;;5134056;28;20762;-78
2021/06/10 00:52:40;;;;;;;5.37;4.97;;;16.30;99.90;;;;;;5120632;28;20409;-77
2021/06/10 00:55:07;;;;;;;9.30;5.20;;;16.40;99.90;;;;;;5121752;28;20419;-79
2021/06/10 00:57:35;;;;;;;5.90;5.30;;;16.40;99.90;;;;;;5103441;28;20477;-77
2021/06/10 01:00:06;;;;;;;10.40;5.27;;;16.30;99.90;;;;;;5122095;28;20440;-76
2021/06/10 01:02:33;;;;;;;5.25;4.78;;;16.30;99.90;;;;;;5121882;28;20457;-77
2021/06/10 01:05:00;;;;;;;5.95;5.32;;;16.10;99.90;;;;;;5122066;28;20205;-78
2021/06/10 01:07:42;;;;;;;6.17;5.57;;;16.00;99.90;;;;;;5120862;28;20237;-77
2021/06/10 01:10:28;;;;;;;6.00;5.50;;;15.90;99.90;;;;;;5103478;28;20412;-78
2021/06/10 01:13:30;;;;;;;6.82;5.40;;;15.90;99.90;;;;;;5098243;28;20419;-76
2021/06/10 01:16:02;;;;;;;5.07;4.68;;;15.90;99.90;;;;;;5104888;28;20197;-76
2021/06/10 01:18:31;;;;;;;6.20;5.80;;;15.90;99.90;;;;;;5123108;28;20201;-76
2021/06/10 01:21:00;;;;;;;5.68;5.07;;;15.90;99.90;;;;;;5129357;27;20880;-76
2021/06/10 01:23:33;;;;;;;6.68;6.00;;;15.80;99.90;;;;;;5108314;28;20546;-77
2021/06/10 01:26:15;;;;;;;7.30;5.95;;;15.60;99.90;;;;;;5121443;28;20489;-77
2021/06/10 01:28:44;;;;;;;4.97;4.57;;;15.60;99.90;;;;;;5099814;28;20221;-77
2021/06/10 01:31:14;;;;;;;6.25;5.75;;;15.70;99.90;;;;;;5121402;28;20206;-76
2021/06/10 01:33:46;;;;;;;5.75;5.25;;;15.70;99.90;;;;;;5118052;28;20568;-79
2021/06/10 01:36:27;;;;;;;7.47;5.43;;;15.60;99.90;;;;;;5106338;28;20209;-76
2021/06/10 01:38:57;;;;;;;6.95;5.53;;;15.60;99.90;;;;;;5100431;28;20234;-77
2021/06/10 01:41:26;;;;;;;5.35;4.90;;;15.60;99.90;;;;;;5098042;27;20229;-79
2021/06/10 01:43:55;;;;;;;6.60;5.80;;;15.50;99.90;;;;;;5125144;28;20381;-77
2021/06/10 01:46:24;;;;;;;5.68;5.18;;;15.60;99.90;;;;;;5124475;28;20198;-75
2021/06/10 01:48:51;;;;;;;6.07;5.47;;;15.40;99.90;;;;;;5113828;28;20206;-78
2021/06/10 01:51:26;;;;;;;6.03;5.43;;;15.30;99.90;;;;;;5124691;28;20456;-77
2021/06/10 01:53:54;;;;;;;8.77;7.30;;;15.30;99.90;;;;;;5123297;28;20269;-77
2021/06/10 01:56:24;;;;;;;9.43;6.40;;;15.20;99.90;;;;;;5106870;28;20649;-77
2021/06/10 01:58:53;;;;;;;7.75;5.63;;;15.20;99.90;;;;;;5131261;27;20241;-77
2021/06/10 04:20:49;;;;;;;8.40;7.40;;;20.40;93.50;;;;;;5142646;27;20335;-58
2021/06/10 04:23:16;;;;;;;8.30;7.63;;;19.70;95.50;;;;;;5131311;27;20729;-57
2021/06/10 04:25:44;;;;;;;7.90;7.10;;;19.50;95.90;;;;;;5122781;27;20421;-59
2021/06/10 04:28:11;;;;;;;9.27;6.63;;;19.20;96.30;;;;;;5130964;28;20454;-57
2021/06/10 04:30:39;;;;;;;8.53;7.73;;;19.10;96.70;;;;;;5119116;28;21485;-57
2021/06/10 04:33:06;;;;;;;9.40;7.53;;;18.90;97.10;;;;;;5134250;28;20670;-55
2021/06/10 04:35:33;;;;;;;12.53;9.07;;;18.90;97.30;;;;;;5133073;28;20415;-55
2021/06/10 04:38:01;;;;;;;8.13;7.30;;;18.90;97.30;;;;;;5126851;27;20511;-55
2021/06/10 04:40:28;;;;;;;11.20;7.20;;;18.90;97.40;;;;;;5127318;28;20441;-58
2021/06/10 04:42:55;;;;;;;14.93;8.13;;;18.90;97.10;;;;;;5132659;28;20802;-56
2021/06/10 04:45:22;;;;;;;8.10;7.30;;;19.10;97.30;;;;;;5133642;27;20488;-55
2021/06/10 04:47:49;;;;;;;8.40;7.60;;;19.40;96.70;;;;;;5133018;27;20408;-57
2021/06/10 04:50:18;;;;;;;16.73;7.00;;;19.50;96.30;;;;;;5134093;27;20507;-58
2021/06/10 04:52:45;;;;;;;8.00;7.30;;;19.90;96.30;;;;;;5132033;28;20737;-55
2021/06/10 04:55:12;;;;;;;12.53;8.03;;;19.00;95.40;;;;;;5133030;27;20495;-56
2021/06/10 04:57:39;;;;;;;7.40;6.87;;;20.10;95.40;;;;;;5133229;27;20445;-56
2021/06/10 05:00:07;;;;;;;8.60;7.10;;;20.40;94.80;;;;;;5133718;28;20426;-55
2021/06/10 05:02:36;;;;;;;7.10;6.37;;;20.90;94.10;;;;;;5133082;27;20940;-58
2021/06/10 05:05:04;;;;;;;7.77;6.97;;;21.10;93.50;;;;;;5128984;27;20409;-56
2021/06/10 05:07:32;;;;;;;11.57;7.47;;;21.30;93.10;;;;;;5130637;27;20486;-55
2021/06/10 05:09:59;;;;;;;7.37;6.67;;;21.50;92.70;;;;;;5132360;27;20468;-58
2021/06/10 05:12:26;;;;;;;8.63;7.33;;;21.70;92.30;;;;;;5131115;27;20507;-57
2021/06/10 05:14:54;;;;;;;8.20;7.50;;;21.70;92.30;;;;;;5125782;27;20439;-59
2021/06/10 05:17:21;;;;;;;7.60;6.90;;;21.60;92.70;;;;;;5133242;27;20423;-57
2021/06/10 05:19:48;;;;;;;8.00;7.33;;;21.60;92.70;;;;;;5127726;27;20486;-57
2021/06/10 05:22:15;;;;;;;9.00;8.00;;;21.40;92.80;;;;;;5113658;28;20423;-59
2021/06/10 05:24:42;;;;;;;8.37;7.10;;;21.30;93.30;;;;;;5108156;28;20477;-57
2021/06/10 05:27:10;;;;;;;7.50;6.30;;;21.30;93.30;;;;;;5116010;28;21095;-59
2021/06/10 05:29:38;;;;;;;6.97;6.40;;;21.20;93.30;;;;;;5116684;28;20458;-56
2021/06/10 05:32:07;;;;;;;8.57;7.93;;;21.30;93.40;;;;;;5118014;28;20608;-56
2021/06/10 05:34:34;;;;;;;9.77;6.97;;;21.30;92.80;;;;;;5118303;28;20959;-57
2021/06/10 05:37:01;;;;;;;7.77;7.17;;;21.40;92.90;;;;;;5118943;28;20459;-58
2021/06/10 05:39:29;;;;;;;7.47;6.67;;;21.60;92.70;;;;;;5116283;28;20511;-57
2021/06/10 05:41:56;;;;;;;8.93;6.73;;;21.80;92.30;;;;;;5116511;27;20450;-58
2021/06/10 05:44:23;;;;;;;7.97;6.23;;;21.90;92.10;;;;;;5115303;28;20423;-57
2021/06/10 05:46:50;;;;;;;6.90;6.23;;;22.00;91.70;;;;;;5117646;28;20411;-59
2021/06/10 05:49:18;;;;;;;6.90;6.30;;;22.00;91.60;;;;;;5113042;28;20465;-61
2021/06/10 05:51:46;;;;;;;14.70;6.90;;;22.20;91.30;;;;;;5116925;28;20465;-57
2021/06/10 05:54:13;;;;;;;10.30;7.47;;;22.50;91.00;;;;;;5114704;28;20419;-57
2021/06/10 05:56:40;;;;;;;7.93;7.30;;;22.60;90.50;;;;;;5116508;28;20481;-57
2021/06/10 05:59:07;;;;;;;7.13;6.63;;;22.70;91.00;;;;;;5105702;28;20466;-59
2021/06/10 06:01:34;;;;;;;7.33;6.83;;;22.80;90.20;;;;;;5105195;28;20439;-57
2021/06/10 06:04:01;;;;;;;7.27;6.77;;;23.50;89.00;;;;;;5107452;28;20442;-58
2021/06/10 06:06:28;;;;;;;8.03;7.53;;;23.60;86.70;;;;;;5101076;28;20414;-59
2021/06/10 06:08:55;;;;;;;8.57;6.90;;;24.00;85.60;;;;;;5110678;27;20721;-58
2021/06/10 06:11:23;;;;;;;9.17;8.47;;;24.50;83.70;;;;;;5118313;27;20488;-58
2021/06/10 06:13:55;;;;;;;7.10;6.70;;;25.00;82.10;;;;;;5118145;28;20464;-59
2021/06/10 06:16:22;;;;;;;7.40;7.00;;;25.30;80.40;;;;;;5116247;28;20417;-59
2021/06/10 06:18:50;;;;;;;8.37;7.87;;;25.70;79.00;;;;;;5117381;28;20541;-58
2021/06/10 06:21:17;;;;;;;8.50;7.80;;;26.00;77.10;;;;;;5117957;28;20443;-58
2021/06/10 06:23:44;;;;;;;8.57;7.97;;;26.20;76.60;;;;;;5106599;28;20427;-57
2021/06/10 06:26:12;;;;;;;7.30;6.90;;;27.50;72.50;;;;;;5108496;28;20818;-57
2021/06/10 06:28:40;;;;;;;7.83;7.43;;;28.60;66.90;;;;;;5115102;28;20494;-57
2021/06/10 06:31:08;;;;;;;8.87;8.37;;;29.30;64.50;;;;;;5106287;28;20501;-58
2021/06/10 06:33:35;;;;;;;7.90;7.37;;;29.40;62.50;;;;;;5116298;28;20413;-58
2021/06/10 06:36:03;;;;;;;7.90;7.50;;;29.00;63.10;;;;;;5110464;28;20861;-56
2021/06/10 06:38:30;;;;;;;9.47;8.80;;;28.70;61.90;;;;;;5110958;28;20460;-58
2021/06/10 06:40:57;;;;;;;7.80;7.30;;;28.30;62.70;;;;;;5116872;28;20438;-58
2021/06/10 06:43:28;;;;;;;7.50;7.20;;;28.80;61.10;;;;;;5116129;28;20609;-58
2021/06/10 06:45:55;;;;;;;7.80;7.40;;;29.40;59.80;;;;;;5117110;28;20438;-58
2021/06/10 06:48:23;;;;;;;8.77;8.37;;;30.40;57.00;;;;;;5106405;28;20447;-57
2021/06/10 06:50:50;;;;;;;8.80;8.37;;;31.60;54.30;;;;;;5112172;28;20723;-58
2021/06/10 06:53:17;;;;;;;8.07;7.70;;;33.40;50.80;;;;;;5117451;28;20445;-58
2021/06/10 06:55:44;;;;;;;8.17;7.77;;;34.80;46.20;;;;;;5117150;28;20442;-59
2021/06/10 06:58:11;;;;;;;9.40;9.00;;;35.90;44.60;;;;;;5117341;28;20511;-59
2021/06/10 07:00:38;;;;;;;9.20;8.70;;;37.30;41.30;;;;;;5117619;27;20717;-59
2021/06/10 07:03:06;;;;;;;9.97;9.27;;;38.90;38.70;;;;;;5118207;28;20505;-59
2021/06/10 07:05:33;;;;;;;9.30;8.80;;;39.60;36.80;;;;;;5116963;28;20450;-59
2021/06/10 07:08:00;;;;;;;9.77;9.37;;;39.80;36.10;;;;;;5115469;28;20438;-58
2021/06/10 07:10:27;;;;;;;9.73;9.33;;;40.70;34.70;;;;;;5117217;28;20488;-58
2021/06/10 07:12:54;;;;;;;9.23;8.73;;;41.30;33.70;;;;;;5114627;27;20755;-57
2021/06/10 07:15:21;;;;;;;9.00;8.60;;;41.90;33.00;;;;;;5112034;28;20435;-58
2021/06/10 07:17:48;;;;;;;10.10;9.70;;;41.70;32.20;;;;;;5112924;28;20809;-59
2021/06/10 07:20:16;;;;;;;10.20;9.80;;;41.60;32.70;;;;;;5114802;28;20501;-59
2021/06/10 07:22:43;;;;;;;9.40;8.90;;;41.90;31.60;;;;;;5115357;28;20476;-58
2021/06/10 07:25:11;;;;;;;10.73;10.17;;;42.10;31.10;;;;;;5102621;28;20442;-59
2021/06/10 07:27:38;;;;;;;8.80;8.50;;;41.20;31.80;;;;;;5115313;28;20619;-58
2021/06/10 07:30:06;;;;;;;9.53;8.83;;;41.60;31.00;;;;;;5100111;28;20451;-59
2021/06/10 07:32:34;;;;;;;7.70;7.40;;;41.70;30.90;;;;;;5096754;28;20470;-58
2021/06/10 07:35:02;;;;;;;8.93;8.50;;;38.90;33.70;;;;;;5096095;28;20443;-59
2021/06/10 07:37:30;;;;;;;8.83;8.43;;;36.60;37.10;;;;;;5114658;28;20453;-59
2021/06/10 07:39:57;;;;;;;8.97;8.57;;;36.50;37.90;;;;;;5106326;28;20475;-60
2021/06/10 07:42:24;;;;;;;8.90;8.50;;;36.80;36.40;;;;;;5109958;28;20771;-59
2021/06/10 07:44:51;;;;;;;7.60;7.30;;;35.60;37.80;;;;;;5106228;28;20445;-59
2021/06/10 07:47:18;;;;;;;9.77;9.20;;;34.80;39.70;;;;;;5112724;28;20482;-60
2021/06/10 07:49:48;;;;;;;8.53;8.13;;;33.00;42.00;;;;;;5114484;28;20491;-60
2021/06/10 07:52:15;;;;;;;8.90;8.30;;;31.50;43.90;;;;;;5113680;28;20472;-58
2021/06/10 07:54:42;;;;;;;8.50;7.87;;;30.90;45.50;;;;;;5102862;28;20491;-59
2021/06/10 07:57:13;;;;;;;7.80;7.40;;;29.90;47.40;;;;;;5109676;28;20436;-59
2021/06/10 07:59:40;;;;;;;7.43;7.13;;;29.50;48.40;;;;;;5095851;28;20479;-59
2021/06/10 08:02:09;;;;;;;6.57;6.27;;;28.60;49.60;;;;;;5101704;28;20442;-59
2021/06/10 08:04:36;;;;;;;7.10;6.80;;;28.00;50.60;;;;;;5116199;28;20426;-59
2021/06/10 08:07:04;;;;;;;6.60;6.30;;;27.80;51.20;;;;;;5115425;28;20760;-59
2021/06/10 08:09:32;;;;;;;6.70;6.30;;;27.70;50.30;;;;;;5112541;28;20753;-59
2021/06/10 08:12:00;;;;;;;7.03;6.63;;;27.50;51.90;;;;;;5114852;28;20499;-60
2021/06/10 08:14:28;;;;;;;7.20;6.70;;;27.40;51.30;;;;;;5110111;28;20416;-58
2021/06/10 08:16:56;;;;;;;7.90;7.40;;;28.00;51.00;;;;;;5105804;28;20419;-58
2021/06/10 08:19:23;;;;;;;8.97;8.47;;;27.00;54.50;;;;;;5105044;28;20770;-58
2021/06/10 08:21:50;;;;;;;8.17;7.77;;;25.00;61.20;;;;;;5106481;28;20438;-58
2021/06/10 08:24:18;;;;;;;8.70;7.90;;;24.00;66.60;;;;;;5116393;28;20491;-58
2021/06/10 08:26:46;;;;;;;9.17;8.47;;;23.10;70.40;;;;;;5116501;28;20412;-59
2021/06/10 08:29:14;;;;;;;8.07;7.47;;;22.50;74.10;;;;;;5110461;28;20418;-59
2021/06/10 08:31:41;;;;;;;7.83;7.23;;;22.10;77.30;;;;;;5109526;28;20422;-57
2021/06/10 08:34:08;;;;;;;8.70;8.00;;;22.00;78.90;;;;;;5113070;28;20470;-58
2021/06/10 08:36:35;;;;;;;7.90;7.30;;;21.80;82.60;;;;;;5099528;28;20424;-58
2021/06/10 08:39:04;;;;;;;9.67;8.87;;;21.10;87.40;;;;;;5102805;28;20447;-58
2021/06/10 08:41:33;;;;;;;9.73;8.97;;;20.60;92.10;;;;;;5109061;28;20770;-59
2021/06/10 08:44:01;;;;;;;10.90;10.00;;;20.50;96.40;;;;;;5102311;28;20700;-58
2021/06/10 08:46:32;;;;;;;8.97;7.90;;;20.30;99.00;;;;;;5116062;28;20459;-59
2021/06/10 08:49:01;;;;;;;9.47;8.57;;;19.90;97.90;;;;;;5112562;28;20515;-58
2021/06/10 08:51:28;;;;;;;8.43;7.80;;;19.70;98.00;;;;;;5109131;28;20489;-58
2021/06/10 08:53:56;;;;;;;6.90;6.40;;;19.90;95.60;;;;;;5098027;28;20683;-57
2021/06/10 08:56:26;;;;;;;8.37;7.67;;;20.50;94.80;;;;;;5103921;28;20809;-59
2021/06/10 08:58:53;;;;;;;7.40;6.83;;;21.20;93.30;;;;;;5103189;28;20445;-58
2021/06/10 09:01:20;;;;;;;6.90;6.40;;;21.50;92.40;;;;;;5115323;28;20534;-59
2021/06/10 09:03:48;;;;;;;6.87;6.47;;;22.30;90.80;;;;;;5102997;28;20437;-59
2021/06/10 09:06:19;;;;;;;9.17;6.87;;;23.00;89.10;;;;;;5105757;28;20457;-59
2021/06/10 09:08:55;;;;;;;7.67;6.97;;;23.80;85.40;;;;;;5102946;28;20774;-58
2021/06/10 09:11:26;;;;;;;8.43;7.93;;;24.70;80.60;;;;;;5106545;28;20848;-59
2021/06/10 09:13:55;;;;;;;8.30;7.60;;;24.90;78.90;;;;;;5119743;28;20444;-59
2021/06/10 09:16:24;;;;;;;7.67;7.07;;;25.00;78.00;;;;;;5108405;28;20454;-58
2021/06/10 09:19:13;;;;;;;7.67;7.27;;;24.60;79.70;;;;;;5118978;28;20469;-59
2021/06/10 09:21:47;;;;;;;7.53;7.13;;;24.10;81.80;;;;;;5117880;28;20436;-59
2021/06/10 09:24:35;;;;;;;8.80;8.10;;;23.80;84.60;;;;;;5119744;28;20754;-58
2021/06/10 09:27:16;;;;;;;7.70;7.20;;;23.60;83.50;;;;;;5115681;28;20769;-58
2021/06/10 09:29:50;;;;;;;8.13;7.40;;;23.00;86.30;;;;;;5119319;28;20631;-60
2021/06/10 09:32:26;;;;;;;6.07;5.77;;;22.40;87.20;;;;;;5118193;28;20416;-59
2021/06/10 09:35:05;;;;;;;5.20;5.00;;;21.90;87.70;;;;;;5119949;27;20422;-58
2021/06/10 09:37:36;;;;;;;6.93;6.30;;;21.30;89.20;;;;;;5113193;28;20482;-59
2021/06/10 09:40:13;;;;;;;5.40;5.10;;;20.90;90.40;;;;;;5111894;28;20466;-59
2021/06/10 09:42:42;;;;;;;5.50;5.20;;;20.60;91.30;;;;;;5103379;28;20813;-60
2021/06/10 09:45:14;;;;;;;5.77;5.37;;;20.60;91.70;;;;;;5106945;28;20646;-58
2021/06/10 09:47:45;;;;;;;5.20;4.87;;;20.70;96.10;;;;;;5104026;28;20445;-58
2021/06/10 09:50:19;;;;;;;4.73;4.50;;;20.20;95.60;;;;;;5117731;28;20457;-59
2021/06/10 09:52:47;;;;;;;4.83;4.53;;;19.90;94.40;;;;;;5104020;27;20715;-57
2021/06/10 09:55:32;;;;;;;5.50;5.00;;;20.10;95.20;;;;;;5107229;28;20407;-59
2021/06/10 09:58:12;;;;;;;5.00;4.70;;;20.40;95.40;;;;;;5104864;28;20546;-59
2021/06/10 10:00:53;;;;;;;5.10;4.70;;;20.30;95.00;;;;;;5104857;28;20450;-58
2021/06/10 10:03:30;;;;;;;5.07;4.77;;;20.00;95.30;;;;;;5098881;28;20477;-58
2021/06/10 10:06:06;;;;;;;5.17;4.77;;;20.10;95.10;;;;;;5112423;28;20462;-59
2021/06/10 10:08:35;;;;;;;5.07;4.63;;;20.30;94.60;;;;;;5118184;28;20417;-59
2021/06/10 10:11:04;;;;;;;7.33;4.93;;;20.50;94.10;;;;;;5116313;28;20800;-60
2021/06/10 10:13:32;;;;;;;6.60;5.20;;;20.60;94.10;;;;;;5116982;28;20442;-59
2021/06/10 10:16:03;;;;;;;5.50;5.00;;;20.50;94.30;;;;;;5117755;28;20624;-58
2021/06/10 10:18:31;;;;;;;6.10;5.00;;;20.60;94.50;;;;;;5118720;28;20413;-59
2021/06/10 10:21:02;;;;;;;5.00;4.63;;;20.70;93.80;;;;;;5117850;28;20474;-58
2021/06/10 10:23:32;;;;;;;4.87;4.57;;;20.50;94.30;;;;;;5110122;28;20450;-57
2021/06/10 10:26:00;;;;;;;4.40;4.20;;;20.50;94.40;;;;;;5114885;28;20686;-59
2021/06/10 10:28:30;;;;;;;5.60;4.90;;;20.50;94.60;;;;;;5113840;28;20434;-59
2021/06/10 10:30:58;;;;;;;4.70;4.40;;;20.30;94.60;;;;;;5115886;28;20443;-59
2021/06/10 10:33:26;;;;;;;4.50;4.20;;;20.50;94.60;;;;;;5117242;28;20436;-60
2021/06/10 10:36:00;;;;;;;4.73;4.40;;;20.50;94.60;;;;;;5114971;28;20464;-56
2021/06/10 10:38:35;;;;;;;4.90;4.60;;;20.20;95.20;;;;;;5117201;28;20749;-58
2021/06/10 10:41:11;;;;;;;6.13;5.57;;;20.50;94.60;;;;;;5113553;28;20676;-59
2021/06/10 10:43:38;;;;;;;4.47;4.17;;;20.60;93.90;;;;;;5099820;28;20778;-59
2021/06/10 10:46:08;;;;;;;4.40;4.10;;;21.10;93.50;;;;;;5110363;28;20441;-58
2021/06/10 10:48:37;;;;;;;7.30;4.97;;;21.60;92.80;;;;;;5116111;28;20612;-59
2021/06/10 10:51:24;;;;;;;5.13;4.73;;;22.00;91.90;;;;;;5112409;28;20457;-59
2021/06/10 10:53:57;;;;;;;4.50;4.30;;;21.30;91.90;;;;;;5112032;28;20435;-58
2021/06/10 10:56:41;;;;;;;4.80;4.50;;;21.10;92.30;;;;;;5111493;28;20593;-58
2021/06/10 10:59:09;;;;;;;6.07;5.57;;;21.50;92.30;;;;;;5113981;28;20453;-58
2021/06/10 11:01:36;;;;;;;4.60;4.40;;;22.00;91.20;;;;;;5112323;28;20544;-58
2021/06/10 11:04:05;;;;;;;4.90;4.60;;;22.50;90.10;;;;;;5115752;28;20457;-57
2021/06/10 11:06:35;;;;;;;4.43;4.23;;;22.80;88.00;;;;;;5115170;28;20439;-60
2021/06/10 11:09:14;;;;;;;4.70;4.50;;;22.70;86.20;;;;;;5114594;28;20491;-57
2021/06/10 11:11:56;;;;;;;4.77;4.57;;;22.70;86.40;;;;;;5113049;28;20442;-58
2021/06/10 11:14:41;;;;;;;4.90;4.70;;;22.90;86.60;;;;;;5113609;28;20950;-57
2021/06/10 11:17:14;;;;;;;4.63;4.33;;;23.30;84.40;;;;;;5111315;28;20495;-58
2021/06/10 11:20:19;;;;;;;6.50;5.17;;;24.00;80.60;;;;;;5110688;28;20792;-60
2021/06/10 11:22:51;;;;;;;5.30;5.00;;;24.50;78.40;;;;;;5110778;28;20421;-58
2021/06/10 11:25:29;;;;;;;5.03;4.83;;;24.60;75.90;;;;;;5116162;28;20625;-58
2021/06/10 11:28:10;;;;;;;6.40;5.80;;;24.20;75.30;;;;;;5116664;28;20677;-58
2021/06/10 11:30:39;;;;;;;4.80;4.60;;;24.50;72.50;;;;;;5113238;28;20641;-57
2021/06/10 11:33:17;;;;;;;5.27;4.83;;;24.40;74.40;;;;;;5105405;28;20469;-58
2021/06/10 11:35:53;;;;;;;5.00;4.80;;;24.40;74.70;;;;;;5105959;28;20441;-58
2021/06/10 11:38:30;;;;;;;5.13;4.93;;;24.50;71.30;;;;;;5115969;28;20412;-56
2021/06/10 11:41:07;;;;;;;5.30;5.00;;;24.40;75.90;;;;;;5095856;27;20539;-59
2021/06/10 11:43:40;;;;;;;5.20;5.00;;;24.00;77.90;;;;;;5100524;28;20488;-58
2021/06/10 11:46:17;;;;;;;5.40;5.10;;;23.90;78.70;;;;;;5105517;28;20434;-60
2021/06/10 11:48:55;;;;;;;5.40;5.00;;;24.00;78.60;;;;;;5115359;28;20623;-58
2021/06/10 11:51:25;;;;;;;4.60;4.40;;;24.00;74.70;;;;;;5113446;28;20529;-60
2021/06/10 11:54:03;;;;;;;5.20;4.80;;;24.10;73.40;;;;;;5114027;28;20487;-64
2021/06/10 11:56:31;;;;;;;11.00;5.07;;;23.90;73.70;;;;;;5113788;28;20416;-58
2021/06/10 11:59:16;;;;;;;4.50;4.30;;;23.60;75.20;;;;;;5117229;28;20442;-61
2021/06/10 12:02:06;;;;;;;5.90;5.60;;;23.80;73.30;;;;;;5112537;28;20531;-61
2021/06/10 12:04:35;;;;;;;4.70;4.43;;;23.90;73.30;;;;;;5114931;28;20744;-59
2021/06/10 12:07:15;;;;;;;5.23;4.93;;;24.20;71.90;;;;;;5099177;28;20439;-60
2021/06/10 12:09:57;;;;;;;4.80;4.60;;;24.60;69.70;;;;;;5101628;28;20482;-60
2021/06/10 12:12:45;;;;;;;4.90;4.70;;;24.60;69.50;;;;;;5101591;28;20447;-61
2021/06/10 12:15:22;;;;;;;4.70;4.50;;;24.90;68.50;;;;;;5109622;28;20508;-59
2021/06/10 12:17:54;;;;;;;4.90;4.70;;;24.90;67.40;;;;;;5108689;28;20446;-59
2021/06/10 12:20:29;;;;;;;5.30;5.10;;;24.80;66.50;;;;;;5113555;28;20471;-58
2021/06/10 12:23:00;;;;;;;5.60;5.20;;;24.60;66.50;;;;;;5113121;28;20441;-58
2021/06/10 12:25:32;;;;;;;4.87;4.57;;;24.50;66.50;;;;;;5105730;28;20434;-59
2021/06/10 12:28:02;;;;;;;4.70;4.50;;;24.60;66.50;;;;;;5104774;28;20462;-59
2021/06/10 12:30:38;;;;;;;5.87;5.50;;;24.80;67.40;;;;;;5117143;28;20441;-59
2021/06/10 12:33:14;;;;;;;5.30;5.10;;;25.20;67.10;;;;;;5109629;28;20413;-60
2021/06/10 12:35:46;;;;;;;5.67;5.47;;;25.40;63.80;;;;;;5118985;28;20502;-60
2021/06/10 12:38:15;;;;;;;5.20;5.00;;;25.40;64.90;;;;;;5120157;28;20435;-58
2021/06/10 12:40:45;;;;;;;5.50;5.30;;;25.40;64.90;;;;;;5116572;28;20830;-60
2021/06/10 12:43:17;;;;;;;5.87;5.57;;;25.70;64.60;;;;;;5109261;28;20673;-58
2021/06/10 12:45:44;;;;;;;6.27;5.97;;;25.60;63.30;;;;;;5102751;28;20481;-58
2021/06/10 12:48:26;;;;;;;5.27;5.07;;;25.70;64.60;;;;;;5104437;28;20949;-59
2021/06/10 12:51:19;;;;;;;5.63;5.27;;;25.80;65.40;;;;;;5113715;28;20445;-58
2021/06/10 12:54:04;;;;;;;5.50;5.20;;;25.80;64.90;;;;;;5103504;28;20462;-60
2021/06/10 12:56:40;;;;;;;5.57;5.37;;;25.40;63.90;;;;;;5100484;28;20472;-59
2021/06/10 12:59:08;;;;;;;5.17;4.97;;;25.30;65.40;;;;;;5114437;28;20773;-58
2021/06/10 13:01:35;;;;;;;6.63;6.07;;;25.50;64.00;;;;;;5100004;28;20486;-58
2021/06/10 13:04:03;;;;;;;5.23;4.90;;;25.90;64.40;;;;;;5111684;28;20479;-59
2021/06/10 13:06:31;;;;;;;5.53;5.13;;;26.00;63.70;;;;;;5113581;28;20446;-57
2021/06/10 13:08:58;;;;;;;5.60;5.30;;;26.00;63.90;;;;;;5115865;28;20462;-59
2021/06/10 13:11:25;;;;;;;6.13;5.80;;;26.30;64.70;;;;;;5108630;27;20596;-59
2021/06/10 13:13:56;;;;;;;6.93;6.53;;;26.80;63.30;;;;;;5117548;28;20771;-59
2021/06/10 13:16:23;;;;;;;5.73;5.43;;;27.10;62.30;;;;;;5119941;28;20456;-59
2021/06/10 13:18:51;;;;;;;6.77;6.27;;;27.10;61.70;;;;;;5119446;28;20496;-58
2021/06/10 13:21:37;;;;;;;6.57;6.27;;;26.00;60.40;;;;;;5118817;28;20486;-58
2021/06/10 13:24:07;;;;;;;6.23;5.93;;;27.20;59.40;;;;;;5119145;28;20488;-58
2021/06/10 13:26:36;;;;;;;6.13;5.83;;;27.20;60.80;;;;;;5117383;28;20439;-57
2021/06/10 13:29:07;;;;;;;5.70;5.50;;;27.10;60.70;;;;;;5111388;28;20438;-58
2021/06/10 13:31:45;;;;;;;6.20;6.00;;;27.40;60.70;;;;;;5113547;28;20439;-59
2021/06/10 13:34:26;;;;;;;6.73;6.30;;;27.70;60.40;;;;;;5117083;28;20450;-60
2021/06/10 13:36:56;;;;;;;7.10;6.80;;;27.80;58.90;;;;;;5118865;28;20508;-60
2021/06/10 13:39:24;;;;;;;6.87;6.50;;;27.90;59.70;;;;;;5119852;28;20633;-59
2021/06/10 13:41:56;;;;;;;6.50;6.17;;;27.70;58.70;;;;;;5118915;28;20486;-57
2021/06/10 13:44:24;;;;;;;7.40;7.00;;;28.00;59.50;;;;;;5116422;28;20479;-59
2021/06/10 13:46:54;;;;;;;7.23;6.73;;;28.10;59.80;;;;;;5118932;28;20545;-59
2021/06/10 13:49:22;;;;;;;6.57;6.17;;;28.30;59.00;;;;;;5114335;28;20449;-58
2021/06/10 13:51:49;;;;;;;6.60;6.30;;;28.30;58.70;;;;;;5116783;28;20976;-60
2021/06/10 13:54:17;;;;;;;7.80;7.40;;;28.40;58.30;;;;;;5114562;28;20445;-59
2021/06/10 13:56:46;;;;;;;6.57;6.10;;;28.10;59.90;;;;;;5098677;28;20500;-59
2021/06/10 13:59:13;;;;;;;7.30;7.00;;;28.10;59.80;;;;;;5113264;28;20497;-58
2021/06/10 14:01:41;;;;;;;5.87;5.57;;;27.90;59.00;;;;;;5118421;27;20483;-60
2021/06/10 14:04:08;;;;;;;6.23;5.93;;;27.70;59.60;;;;;;5115841;28;20494;-59
2021/06/10 14:06:35;;;;;;;8.90;6.17;;;27.40;60.10;;;;;;5117074;28;20458;-59
2021/06/10 14:09:03;;;;;;;6.40;6.00;;;27.10;59.00;;;;;;5117948;28;20839;-58
2021/06/10 14:11:30;;;;;;;7.17;6.37;;;26.70;61.30;;;;;;5099342;28;20447;-58
2021/06/10 14:13:57;;;;;;;7.63;6.13;;;26.40;72.80;;;;;;5110568;28;20451;-56
2021/06/10 14:16:24;;;;;;;6.87;6.47;;;25.50;74.60;;;;;;5113308;28;20538;-57
2021/06/10 14:18:52;;;;;;;10.63;7.30;;;25.50;75.40;;;;;;5101134;27;20758;-60
2021/06/10 14:21:26;;;;;;;8.80;8.00;;;25.20;87.30;;;;;;5114305;28;20471;-66
2021/06/10 14:23:55;;;;;;;16.90;15.90;;;24.20;92.30;;;;;;5107935;28;20451;-63
2021/06/10 14:26:25;;;;;;;13.53;12.93;;;20.30;99.90;;;;;;5115748;28;20413;-61
2021/06/10 14:28:54;;;;;;;11.10;10.27;;;;;;;;;;5116178;28;20510;-59
2021/06/10 14:34:07;;;;;;;7.70;7.20;;;;;;;;;;5114479;28;20466;-59
2021/06/10 14:36:36;;;;;;;7.20;6.80;;;19.80;99.90;;;;;;5115073;28;20493;-59
2021/06/10 14:39:04;;;;;;;8.00;7.40;;;19.60;99.90;;;;;;5116451;28;20446;-59
2021/06/10 14:41:32;;;;;;;8.20;7.60;;;20.00;99.90;;;;;;5114832;28;20844;-60
2021/06/10 14:43:59;;;;;;;6.80;6.40;;;19.90;99.90;;;;;;5114142;27;20450;-59
2021/06/10 14:46:26;;;;;;;9.87;9.00;;;20.00;99.90;;;;;;5108301;28;20418;-57
2021/06/10 14:49:12;;;;;;;8.03;7.43;;;20.00;99.90;;;;;;5102043;28;20405;-59
2021/06/10 14:51:39;;;;;;;7.27;6.77;;;20.10;99.90;;;;;;5108724;27;20460;-59
2021/06/10 14:54:06;;;;;;;10.97;8.40;;;20.10;99.90;;;;;;5112088;28;20428;-60
2021/06/10 14:56:34;;;;;;;11.07;9.67;;;20.20;99.90;;;;;;5110106;27;20613;-60
2021/06/10 14:59:01;;;;;;;10.80;9.70;;;20.00;99.90;;;;;;5104291;28;20488;-62
2021/06/10 15:01:29;;;;;;;10.40;9.30;;;19.20;99.90;;;;;;5116654;28;20838;-61
2021/06/10 15:03:56;;;;;;;13.67;12.30;;;19.10;99.90;;;;;;5105646;28;20470;-62
2021/06/10 15:06:23;;;;;;;15.23;11.67;;;19.40;99.90;;;;;;5106108;28;20518;-61
2021/06/10 15:08:51;;;;;;;13.63;12.23;;;19.80;99.90;;;;;;5109456;28;20734;-60
2021/06/10 15:11:19;;;;;;;14.57;13.20;;;20.30;99.90;;;;;;5116891;28;20457;-61
2021/06/10 15:13:47;;;;;;;14.33;11.93;;;20.50;99.90;;;;;;5116690;28;20439;-62
2021/06/10 15:16:17;;;;;;;12.23;10.93;;;20.30;99.90;;;;;;5114893;28;20446;-61
2021/06/10 15:18:48;;;;;;;11.00;9.80;;;20.00;99.90;;;;;;5116444;28;20451;-61
2021/06/10 15:21:18;;;;;;;6.60;6.00;;;19.90;99.90;;;;;;5114017;28;20494;-61
2021/06/10 15:23:47;;;;;;;5.80;5.30;;;19.80;99.90;;;;;;5116719;28;20445;-61